TimeCST,TemperatureF,Dew PointF,Humidity,Sea Level PressureIn,VisibilityMPH,Wind Direction,Wind SpeedMPH,Gust SpeedMPH,PrecipitationIn,Events,Conditions,WindDirDegrees,DateUTC
12:04 AM,57.2,53.6,88,29.90,9.0,SSE,11.5,-,N/A,,Overcast,150,2013-02-10 06:04:00
12:56 AM,57.9,55.0,90,29.87,9.0,SE,11.5,-,N/A,,Overcast,140,2013-02-10 06:56:00
1:56 AM,60.1,57.0,90,29.84,9.0,SSE,12.7,-,N/A,,Overcast,150,2013-02-10 07:56:00
2:56 AM,62.1,59.0,90,29.80,8.0,SSE,15.0,-,N/A,,Overcast,160,2013-02-10 08:56:00
3:56 AM,63.0,60.1,90,29.78,8.0,SSE,12.7,-,N/A,,Overcast,160,2013-02-10 09:56:00
4:56 AM,64.0,62.1,93,29.80,7.0,South,9.2,-,N/A,,Overcast,170,2013-02-10 10:56:00
5:56 AM,64.0,62.1,93,29.77,5.0,SE,10.4,-,0.06,Rain,Light Rain,140,2013-02-10 11:56:00
6:04 AM,64.4,62.6,94,29.78,6.0,SE,11.5,-,0.00,Rain-Thunderstorm,Light Thunderstorms and Rain,140,2013-02-10 12:04:00
6:31 AM,64.4,62.6,94,29.80,2.5,SSE,3.5,-,0.07,Rain-Thunderstorm,Thunderstorms and Rain,150,2013-02-10 12:31:00
6:34 AM,64.4,62.6,94,29.79,3.0,Calm,Calm,-,0.08,Rain-Thunderstorm,Thunderstorms and Rain,0,2013-02-10 12:34:00
6:56 AM,62.1,61.0,96,29.81,3.0,NW,16.1,26.5,0.15,Rain-Thunderstorm,Thunderstorms and Rain,310,2013-02-10 12:56:00
7:05 AM,62.6,60.8,94,29.81,2.5,NNW,13.8,-,0.10,Rain-Thunderstorm,Heavy Thunderstorms and Rain,330,2013-02-10 13:05:00
7:15 AM,60.8,60.8,100,29.81,1.8,WNW,6.9,-,0.26,Rain-Thunderstorm,Heavy Thunderstorms and Rain,300,2013-02-10 13:15:00
7:28 AM,60.8,60.8,100,29.80,2.0,WNW,12.7,18.4,0.37,Rain-Thunderstorm,Heavy Thunderstorms and Rain,300,2013-02-10 13:28:00
7:36 AM,62.6,59.0,88,29.82,4.0,West,13.8,24.2,0.41,Rain-Thunderstorm,Thunderstorms and Rain,270,2013-02-10 13:36:00
7:41 AM,62.6,59.0,88,29.80,1.0,WNW,12.7,27.6,0.46,Rain-Thunderstorm,Thunderstorms and Rain,290,2013-02-10 13:41:00
7:56 AM,62.1,59.0,90,29.82,1.0,WSW,15.0,26.5,0.79,Rain-Thunderstorm,Heavy Thunderstorms and Rain,250,2013-02-10 13:56:00
8:35 AM,60.8,60.8,100,29.85,4.0,SSW,10.4,-,0.47,Rain-Thunderstorm,Light Thunderstorms and Rain,200,2013-02-10 14:35:00
8:56 AM,60.8,59.0,94,29.78,3.0,SE,10.4,-,N/A,Rain-Thunderstorm,Thunderstorms and Rain,130,2013-02-10 14:56:00
9:40 AM,60.8,60.8,100,29.85,4.0,SSW,8.1,-,0.09,Rain,Rain,210,2013-02-10 15:40:00
9:56 AM,61.0,60.1,97,29.85,7.0,SW,5.8,-,0.10,,Overcast,230,2013-02-10 15:56:00
10:03 AM,60.8,60.8,100,29.84,10.0,WSW,5.8,-,N/A,,Overcast,250,2013-02-10 16:03:00
10:14 AM,62.6,60.8,94,29.82,10.0,West,9.2,-,N/A,,Mostly Cloudy,270,2013-02-10 16:14:00
10:35 AM,62.6,60.8,94,29.82,10.0,West,10.4,-,N/A,,Mostly Cloudy,280,2013-02-10 16:35:00
10:56 AM,63.0,59.0,87,29.84,10.0,West,12.7,-,N/A,,Mostly Cloudy,280,2013-02-10 16:56:00
11:56 AM,64.9,52.0,63,29.82,10.0,WNW,13.8,-,N/A,,Mostly Cloudy,290,2013-02-10 17:56:00
12:56 PM,66.9,48.9,52,29.82,10.0,West,6.9,-,N/A,,Mostly Cloudy,260,2013-02-10 18:56:00
1:56 PM,69.1,45.0,42,29.81,10.0,WSW,6.9,-,N/A,,Mostly Cloudy,250,2013-02-10 19:56:00
2:56 PM,70.0,42.1,36,29.83,10.0,SW,10.4,-,N/A,,Mostly Cloudy,230,2013-02-10 20:56:00
3:56 PM,69.1,42.1,38,29.83,10.0,WSW,5.8,-,N/A,,Overcast,240,2013-02-10 21:56:00
4:56 PM,66.9,37.0,33,29.86,10.0,West,6.9,-,N/A,,Overcast,270,2013-02-10 22:56:00
5:56 PM,64.9,37.9,37,29.87,10.0,West,6.9,-,N/A,,Overcast,270,2013-02-10 23:56:00
6:56 PM,63.0,39.9,43,29.89,10.0,WNW,4.6,-,N/A,,Overcast,300,2013-02-11 00:56:00
7:56 PM,59.0,45.0,60,29.92,10.0,WSW,3.5,-,N/A,,Overcast,250,2013-02-11 01:56:00
8:56 PM,61.0,39.0,44,29.96,10.0,West,5.8,-,N/A,,Overcast,280,2013-02-11 02:56:00
9:56 PM,59.0,39.9,49,29.99,10.0,West,5.8,-,N/A,,Overcast,280,2013-02-11 03:56:00
10:56 PM,57.9,39.9,51,29.99,10.0,NW,8.1,-,N/A,,Overcast,310,2013-02-11 04:56:00
11:56 PM,59.0,37.9,46,29.99,10.0,NNW,6.9,-,N/A,,Overcast,340,2013-02-11 05:56:00